createdAt,value
2023-08-01T00:00:52.203Z,1602.00
2023-08-01T00:01:52.283Z,1595.00
2023-08-01T00:02:52.289Z,1596.00
2023-08-01T00:03:52.328Z,1591.00
2023-08-01T00:04:52.328Z,1575.00
2023-08-01T00:05:52.391Z,1574.00
2023-08-01T00:06:52.452Z,1574.00
2023-08-01T00:07:52.483Z,1591.00
2023-08-01T00:08:52.544Z,1578.00
2023-08-01T00:09:52.567Z,1583.00
2023-08-01T00:10:52.640Z,1600.00
2023-08-01T00:11:52.669Z,1603.00
2023-08-01T00:12:52.718Z,1599.00
2023-08-01T00:13:52.762Z,1606.00
2023-08-01T00:14:52.813Z,1612.00
2023-08-01T00:16:52.907Z,1633.00
2023-08-01T00:17:52.841Z,1650.00
2023-08-01T00:18:52.839Z,1640.00
2023-08-01T00:19:52.821Z,1648.00
2023-08-01T00:20:52.829Z,1644.00
2023-08-01T00:21:52.804Z,1652.00
2023-08-01T00:22:52.819Z,1648.00
2023-08-01T00:23:52.828Z,1664.00
2023-08-01T00:24:52.798Z,1668.00
2023-08-01T00:25:52.794Z,1678.00
2023-08-01T00:26:52.789Z,1685.00
2023-08-01T00:27:52.810Z,1673.00
2023-08-01T00:28:52.767Z,1707.00
2023-08-01T00:29:52.759Z,1732.00
2023-08-01T00:30:52.764Z,1749.00
2023-08-01T00:31:52.794Z,1753.00
2023-08-01T00:32:52.774Z,1775.00
2023-08-01T00:33:52.726Z,1789.00
2023-08-01T00:34:52.711Z,1808.00
2023-08-01T00:35:52.703Z,1817.00
2023-08-01T00:36:52.716Z,1822.00
2023-08-01T00:37:52.687Z,1839.00
2023-08-01T00:38:52.705Z,1844.00
2023-08-01T00:39:52.671Z,1855.00
2023-08-01T00:40:52.683Z,1866.00
2023-08-01T00:41:52.671Z,1894.00
2023-08-01T00:42:52.686Z,1892.00
2023-08-01T00:43:52.658Z,1897.00
2023-08-01T00:44:52.676Z,1909.00
2023-08-01T00:45:52.669Z,1914.00
2023-08-01T00:46:52.649Z,1927.00
2023-08-01T00:47:52.698Z,1942.00
2023-08-01T00:48:52.635Z,1958.00
2023-08-01T00:49:52.603Z,1949.00
2023-08-01T00:50:52.623Z,1961.00
2023-08-01T00:51:52.592Z,1963.00
2023-08-01T00:52:52.610Z,1983.00
2023-08-01T00:53:52.587Z,1980.00
2023-08-01T00:54:52.564Z,1993.00
2023-08-01T00:55:52.559Z,1996.00
2023-08-01T00:56:52.580Z,1994.00
2023-08-01T00:57:52.555Z,2004.00
2023-08-01T00:58:52.534Z,2021.00
2023-08-01T00:59:52.536Z,2004.00
2023-08-01T01:00:52.613Z,2011.00
2023-08-01T01:01:52.625Z,2015.00
2023-08-01T01:02:52.772Z,2022.00
2023-08-01T01:03:52.818Z,2029.00
2023-08-01T01:04:52.793Z,2031.00
2023-08-01T01:05:52.856Z,2043.00
2023-08-01T01:06:52.892Z,2031.00
2023-08-01T01:07:52.955Z,2044.00
2023-08-01T01:08:53.024Z,2049.00
2023-08-01T01:09:53.037Z,2044.00
2023-08-01T01:10:53.106Z,2063.00
2023-08-01T01:11:53.181Z,2060.00
2023-08-01T01:12:53.314Z,2064.00
2023-08-01T01:13:53.287Z,2069.00
2023-08-01T01:14:53.339Z,2067.00
2023-08-01T01:15:53.412Z,2072.00
2023-08-01T01:16:53.470Z,2076.00
2023-08-01T01:17:53.531Z,2076.00
2023-08-01T01:18:53.555Z,2073.00
2023-08-01T01:19:53.600Z,2069.00
2023-08-01T01:20:53.649Z,2067.00
2023-08-01T01:21:53.701Z,2071.00
2023-08-01T01:22:53.795Z,2061.00
2023-08-01T01:23:53.818Z,2069.00
2023-08-01T01:24:53.892Z,2072.00
2023-08-01T01:25:53.951Z,2063.00
2023-08-01T01:26:54.020Z,2068.00
2023-08-01T01:27:54.068Z,2079.00
2023-08-01T01:28:54.115Z,2063.00
2023-08-01T01:29:54.190Z,2061.00
2023-08-01T01:30:54.367Z,2060.00
2023-08-01T01:31:54.274Z,2054.00
2023-08-01T01:32:54.354Z,2055.00
2023-08-01T01:33:54.371Z,2059.00
2023-08-01T01:34:54.436Z,2060.00
2023-08-01T01:35:54.489Z,2059.00
2023-08-01T01:36:54.530Z,2042.00
2023-08-01T01:37:54.610Z,2049.00
2023-08-01T01:38:54.680Z,2034.00
2023-08-01T01:39:54.730Z,2031.00
2023-08-01T01:40:54.764Z,2044.00
2023-08-01T01:41:54.824Z,2048.00
2023-08-01T01:42:54.890Z,2024.00
2023-08-01T01:43:54.964Z,2014.00
2023-08-01T01:44:54.982Z,2027.00
2023-08-01T01:45:55.043Z,2034.00
2023-08-01T01:46:55.138Z,2032.00
2023-08-01T01:47:55.227Z,2027.00
2023-08-01T01:48:55.305Z,2026.00
2023-08-01T01:49:55.278Z,2024.00
2023-08-01T01:50:55.332Z,2025.00
2023-08-01T01:51:56.449Z,2019.00
2023-08-01T01:52:55.386Z,2026.00
2023-08-01T01:53:55.362Z,2029.00
2023-08-01T01:54:55.377Z,2044.00
2023-08-01T01:55:55.346Z,2039.00
2023-08-01T01:56:55.361Z,2029.00
2023-08-01T01:57:55.335Z,2025.00
2023-08-01T01:58:55.369Z,2033.00
2023-08-01T01:59:55.314Z,2026.00
2023-08-01T02:00:55.375Z,2032.00
2023-08-01T02:01:55.319Z,2043.00
2023-08-01T02:02:55.447Z,2035.00
2023-08-01T02:03:55.282Z,2038.00
2023-08-01T02:04:55.319Z,2045.00
2023-08-01T02:05:55.275Z,2040.00
2023-08-01T02:06:55.259Z,2047.00
2023-08-01T02:07:55.273Z,2050.00
2023-08-01T02:08:55.292Z,2035.00
2023-08-01T02:09:55.263Z,2030.00
2023-08-01T02:10:55.267Z,2030.00
2023-08-01T02:11:55.245Z,2047.00
2023-08-01T02:12:55.265Z,2045.00
2023-08-01T02:13:55.239Z,2047.00
2023-08-01T02:14:55.240Z,2037.00
2023-08-01T02:15:55.214Z,2041.00
2023-08-01T02:16:55.276Z,2046.00
2023-08-01T02:17:55.228Z,2048.00
2023-08-01T02:18:55.225Z,2038.00
2023-08-01T02:19:55.205Z,2040.00
2023-08-01T02:20:55.171Z,2044.00
2023-08-01T02:21:55.165Z,2032.00
2023-08-01T02:22:55.198Z,2024.00
2023-08-01T02:23:55.165Z,2023.00
2023-08-01T02:24:55.152Z,2028.00
2023-08-01T02:25:55.142Z,2025.00
2023-08-01T02:26:55.137Z,2017.00
2023-08-01T02:27:55.133Z,2024.00
2023-08-01T02:28:55.156Z,2020.00
2023-08-01T02:29:55.216Z,2015.00
2023-08-01T02:30:55.290Z,2030.00
2023-08-01T02:31:55.383Z,2019.00
2023-08-01T02:32:55.439Z,2033.00
2023-08-01T02:33:55.450Z,2022.00
2023-08-01T02:34:55.518Z,2020.00
2023-08-01T02:35:55.591Z,2026.00
2023-08-01T02:36:55.659Z,2008.00
2023-08-01T02:37:55.708Z,2027.00
2023-08-01T02:38:55.759Z,2009.00
2023-08-01T02:39:55.826Z,2003.00
2023-08-01T02:40:55.904Z,2002.00
2023-08-01T02:41:55.984Z,2013.00
2023-08-01T02:42:56.035Z,1998.00
2023-08-01T02:43:56.077Z,2003.00
2023-08-01T02:44:56.119Z,2015.00
2023-08-01T02:45:56.230Z,2012.00
2023-08-01T02:46:56.239Z,2009.00
2023-08-01T02:47:58.187Z,2013.00
2023-08-01T02:48:56.349Z,2026.00
2023-08-01T02:49:56.425Z,2010.00
2023-08-01T02:50:56.483Z,2027.00
2023-08-01T02:51:56.502Z,2009.00
2023-08-01T02:52:56.584Z,2012.00
2023-08-01T02:53:56.645Z,2013.00
2023-08-01T02:54:56.697Z,2008.00
2023-08-01T02:55:56.734Z,2001.00
2023-08-01T02:56:56.815Z,2002.00
2023-08-01T02:57:56.854Z,1996.00
2023-08-01T02:58:56.934Z,1988.00
2023-08-01T02:59:56.960Z,1983.00
2023-08-01T03:00:57.019Z,1981.00
2023-08-01T03:01:57.150Z,1985.00
2023-08-01T03:02:57.181Z,1990.00
2023-08-01T03:03:57.232Z,1983.00
2023-08-01T03:04:57.250Z,1993.00
2023-08-01T03:05:57.299Z,1990.00
2023-08-01T03:06:57.354Z,1996.00
2023-08-01T03:07:57.418Z,1979.00
2023-08-01T03:08:57.479Z,1977.00
2023-08-01T03:09:57.490Z,1981.00
2023-08-01T03:10:57.560Z,1981.00
2023-08-01T03:11:57.614Z,1984.00
2023-08-01T03:12:57.650Z,1990.00
2023-08-01T03:13:57.698Z,1988.00
2023-08-01T03:14:57.756Z,1991.00
2023-08-01T03:15:57.879Z,2001.00
2023-08-01T03:16:57.846Z,2019.00
2023-08-01T03:17:58.116Z,2003.00
2023-08-01T03:18:57.986Z,2015.00
2023-08-01T03:19:58.030Z,2011.00
2023-08-01T03:20:58.080Z,2023.00
2023-08-01T03:21:58.152Z,2024.00
2023-08-01T03:22:58.190Z,2012.00
2023-08-01T03:23:58.268Z,2020.00
2023-08-01T03:24:58.343Z,2018.00
2023-08-01T03:25:58.318Z,2032.00
2023-08-01T03:26:58.369Z,2010.00
2023-08-01T03:27:58.439Z,2029.00
2023-08-01T03:28:58.506Z,2024.00
2023-08-01T03:29:58.545Z,2020.00
2023-08-01T03:30:58.600Z,2031.00
2023-08-01T03:31:58.661Z,2021.00
2023-08-01T03:32:58.684Z,2015.00
2023-08-01T03:33:58.710Z,2010.00
2023-08-01T03:34:58.764Z,2009.00
2023-08-01T03:35:58.910Z,2007.00
2023-08-01T03:36:58.865Z,2007.00
2023-08-01T03:37:58.906Z,2008.00
2023-08-01T03:38:59.013Z,2002.00
2023-08-01T03:39:58.998Z,2021.00
2023-08-01T03:40:59.046Z,2017.00
2023-08-01T03:41:59.114Z,2017.00
2023-08-01T03:42:59.110Z,2012.00
2023-08-01T03:43:59.183Z,2019.00
2023-08-01T03:44:59.193Z,2028.00
2023-08-01T03:45:59.218Z,2036.00
2023-08-01T03:46:59.256Z,2032.00
2023-08-01T03:47:59.278Z,2039.00
2023-08-01T03:48:59.291Z,2039.00
2023-08-01T03:49:59.366Z,2059.00
2023-08-01T03:50:59.409Z,2036.00
2023-08-01T03:52:00.617Z,2042.00
2023-08-01T03:52:59.464Z,2056.00
2023-08-01T03:54:11.441Z,2048.00
2023-08-01T03:55:00.515Z,2049.00
2023-08-01T03:55:59.485Z,2051.00
2023-08-01T03:56:59.472Z,2051.00
2023-08-01T03:57:59.443Z,2054.00
2023-08-01T03:58:59.455Z,2057.00
2023-08-01T03:59:59.436Z,2068.00
2023-08-01T04:00:59.468Z,2072.00
2023-08-01T04:01:59.429Z,2072.00
2023-08-01T04:02:59.444Z,2074.00
2023-08-01T04:03:59.464Z,2064.00
2023-08-01T04:04:59.396Z,2066.00
2023-08-01T04:05:59.400Z,2075.00
2023-08-01T04:06:59.379Z,2081.00
2023-08-01T04:07:59.377Z,2081.00
2023-08-01T04:08:59.376Z,2076.00
2023-08-01T04:09:59.379Z,2082.00
2023-08-01T04:10:59.409Z,2078.00
2023-08-01T04:11:59.438Z,2087.00
2023-08-01T04:12:59.419Z,2084.00
2023-08-01T04:13:59.469Z,2083.00
2023-08-01T04:14:59.475Z,2083.00
2023-08-01T04:15:59.514Z,2084.00
2023-08-01T04:16:59.523Z,2097.00
2023-08-01T04:17:59.537Z,2089.00
2023-08-01T04:18:59.557Z,2089.00
2023-08-01T04:19:59.557Z,2097.00
2023-08-01T04:20:59.556Z,2087.00
2023-08-01T04:21:59.569Z,2073.00
2023-08-01T04:22:59.646Z,2080.00
2023-08-01T04:23:59.610Z,2081.00
2023-08-01T04:24:59.618Z,2089.00
2023-08-01T04:25:59.630Z,2099.00
2023-08-01T04:26:59.669Z,2095.00
2023-08-01T04:27:59.713Z,2092.00
2023-08-01T04:28:59.672Z,2092.00
2023-08-01T04:29:59.730Z,2087.00
2023-08-01T04:30:59.750Z,2083.00
2023-08-01T04:31:59.743Z,2095.00
2023-08-01T04:32:59.790Z,2098.00
2023-08-01T04:33:59.756Z,2091.00
2023-08-01T04:34:59.809Z,2090.00
2023-08-01T04:35:59.765Z,2101.00
2023-08-01T04:36:59.790Z,2094.00
2023-08-01T04:37:59.775Z,2106.00
2023-08-01T04:38:59.793Z,2097.00
2023-08-01T04:39:59.802Z,2109.00
2023-08-01T04:40:59.773Z,2111.00
2023-08-01T04:41:59.783Z,2122.00
2023-08-01T04:42:59.802Z,2116.00
2023-08-01T04:43:59.825Z,2116.00
2023-08-01T04:44:59.834Z,2127.00
2023-08-01T04:45:59.860Z,2128.00
2023-08-01T04:46:59.892Z,2138.00
2023-08-01T04:47:59.958Z,2131.00
2023-08-01T04:48:59.899Z,2128.00
2023-08-01T04:49:59.896Z,2152.00
2023-08-01T04:50:59.964Z,2132.00
2023-08-01T04:51:59.922Z,2130.00
2023-08-01T04:52:59.932Z,2130.00
2023-08-01T04:53:59.920Z,2146.00
2023-08-01T04:54:59.922Z,2145.00
2023-08-01T04:55:59.944Z,2151.00
2023-08-01T04:56:59.932Z,2150.00
2023-08-01T04:57:59.952Z,2154.00
2023-08-01T04:59:00.016Z,2141.00
2023-08-01T04:59:59.965Z,2144.00
2023-08-01T05:01:00.023Z,2145.00
2023-08-01T05:01:59.999Z,2153.00
2023-08-01T05:03:00.096Z,2159.00
2023-08-01T05:04:00.071Z,2159.00
2023-08-01T05:05:00.002Z,2151.00
2023-08-01T05:06:00.047Z,2149.00
2023-08-01T05:07:00.049Z,2164.00
2023-08-01T05:08:00.075Z,2167.00
2023-08-01T05:09:00.037Z,2172.00
2023-08-01T05:10:00.060Z,2154.00
2023-08-01T05:11:00.091Z,2173.00
2023-08-01T05:12:00.059Z,2179.00
2023-08-01T05:13:00.064Z,2168.00
2023-08-01T05:14:00.029Z,2173.00
2023-08-01T05:15:00.056Z,2163.00
2023-08-01T05:16:00.053Z,2166.00
2023-08-01T05:17:00.077Z,2167.00
2023-08-01T05:18:00.175Z,2184.00
2023-08-01T05:19:00.056Z,2193.00
2023-08-01T05:20:00.038Z,2197.00
2023-08-01T05:21:00.068Z,2209.00
2023-08-01T05:22:00.075Z,2206.00
2023-08-01T05:23:00.051Z,2217.00
2023-08-01T05:24:00.053Z,2205.00
2023-08-01T05:25:00.052Z,2214.00
2023-08-01T05:26:00.047Z,2213.00
2023-08-01T05:27:00.071Z,2219.00
2023-08-01T05:28:00.078Z,2219.00
2023-08-01T05:29:00.050Z,2210.00
2023-08-01T05:30:00.088Z,2230.00
2023-08-01T05:31:00.145Z,2236.00
2023-08-01T05:32:00.052Z,2221.00
2023-08-01T05:33:00.078Z,2219.00
2023-08-01T05:34:00.045Z,2232.00
2023-08-01T05:35:00.067Z,2222.00
2023-08-01T05:36:00.089Z,2227.00
2023-08-01T05:37:00.088Z,2231.00
2023-08-01T05:38:00.074Z,2228.00
2023-08-01T05:39:00.103Z,2233.00
2023-08-01T05:40:00.105Z,2235.00
2023-08-01T05:41:00.131Z,2224.00
2023-08-01T05:42:00.096Z,2215.00
2023-08-01T05:43:00.163Z,2225.00
2023-08-01T05:44:00.158Z,2212.00
2023-08-01T05:45:00.189Z,2216.00
2023-08-01T05:46:00.193Z,2200.00
2023-08-01T05:47:00.174Z,2199.00
2023-08-01T05:48:00.321Z,2218.00
2023-08-01T05:49:00.225Z,2213.00
2023-08-01T05:50:00.274Z,2200.00
2023-08-01T05:51:00.356Z,2202.00
2023-08-01T05:52:00.270Z,2198.00
2023-08-01T05:53:00.245Z,2198.00
2023-08-01T05:54:00.221Z,2198.00
2023-08-01T05:55:00.228Z,2208.00
2023-08-01T05:56:00.278Z,2204.00
2023-08-01T05:57:00.248Z,2213.00
2023-08-01T05:58:00.257Z,2193.00
2023-08-01T05:59:00.248Z,2209.00
2023-08-01T06:00:00.265Z,2210.00
2023-08-01T06:01:00.282Z,2220.00
2023-08-01T06:02:00.421Z,2220.00
2023-08-01T06:03:00.308Z,2226.00
2023-08-01T06:04:00.340Z,2220.00
2023-08-01T06:05:00.283Z,2237.00
2023-08-01T06:06:00.283Z,2251.00
2023-08-01T06:07:00.255Z,2236.00
2023-08-01T06:08:00.276Z,2247.00
2023-08-01T06:09:00.280Z,2243.00
2023-08-01T06:10:00.304Z,2252.00
2023-08-01T06:11:00.271Z,2249.00
2023-08-01T06:12:00.292Z,2267.00
2023-08-01T06:13:00.270Z,2248.00
2023-08-01T06:14:00.278Z,2252.00
2023-08-01T06:15:00.250Z,2253.00
2023-08-01T06:16:00.274Z,2261.00
2023-08-01T06:17:00.264Z,2234.00
2023-08-01T06:18:00.270Z,2232.00
2023-08-01T06:19:00.264Z,2222.00
2023-08-01T06:20:00.271Z,2233.00
2023-08-01T06:21:00.277Z,2208.00
2023-08-01T06:22:00.275Z,2218.00
2023-08-01T06:23:00.288Z,2207.00
2023-08-01T06:24:00.281Z,2205.00
2023-08-01T06:25:00.289Z,2207.00
2023-08-01T06:26:00.280Z,2191.00
2023-08-01T06:27:00.303Z,2185.00
2023-08-01T06:28:00.321Z,2190.00
2023-08-01T06:29:00.303Z,2177.00
2023-08-01T06:30:00.317Z,2197.00
2023-08-01T06:31:00.304Z,2195.00
2023-08-01T06:32:00.345Z,2216.00
2023-08-01T06:33:00.398Z,2202.00
2023-08-01T06:34:00.310Z,2191.00
2023-08-01T06:35:00.317Z,2214.00
2023-08-01T06:36:00.294Z,2221.00
2023-08-01T06:37:00.313Z,2212.00
2023-08-01T06:38:00.309Z,2224.00
2023-08-01T06:39:00.290Z,2227.00
2023-08-01T06:40:00.281Z,2237.00
2023-08-01T06:41:00.269Z,2227.00
2023-08-01T06:42:00.297Z,2239.00
2023-08-01T06:43:00.307Z,2243.00
2023-08-01T06:44:00.328Z,2237.00
2023-08-01T06:45:00.329Z,2253.00
2023-08-01T06:46:00.364Z,2254.00
2023-08-01T06:47:00.338Z,2252.00
2023-08-01T06:48:00.381Z,2248.00
2023-08-01T06:49:00.365Z,2269.00
2023-08-01T06:50:00.355Z,2257.00
2023-08-01T06:51:00.346Z,2250.00
2023-08-01T06:52:00.351Z,2256.00
2023-08-01T06:53:00.336Z,2256.00
2023-08-01T06:54:00.368Z,2247.00
2023-08-01T06:55:00.361Z,2242.00
2023-08-01T06:56:00.322Z,2245.00
2023-08-01T06:57:00.373Z,2234.00
2023-08-01T06:58:00.329Z,2228.00
2023-08-01T06:59:00.342Z,2220.00
2023-08-01T07:00:00.369Z,2224.00
2023-08-01T07:01:00.346Z,2215.00
2023-08-01T07:02:00.496Z,2203.00
2023-08-01T07:03:00.491Z,2204.00
2023-08-01T07:04:00.418Z,2194.00
2023-08-01T07:05:00.381Z,2167.00
2023-08-01T07:06:00.450Z,2178.00
2023-08-01T07:07:00.395Z,2168.00
2023-08-01T07:08:00.413Z,2155.00
2023-08-01T07:09:00.365Z,2157.00
2023-08-01T07:10:00.376Z,2140.00
2023-08-01T07:11:00.383Z,2148.00
2023-08-01T07:12:00.398Z,2127.00
2023-08-01T07:13:00.374Z,2139.00
2023-08-01T07:14:00.356Z,2121.00
2023-08-01T07:15:02.307Z,2120.00
2023-08-01T07:16:00.404Z,2117.00
2023-08-01T07:17:00.374Z,2117.00
2023-08-01T07:18:00.428Z,2109.00
2023-08-01T07:19:00.360Z,2099.00
2023-08-01T07:20:00.350Z,2115.00
2023-08-01T07:21:00.350Z,2109.00
2023-08-01T07:22:00.396Z,2093.00
2023-08-01T07:23:00.392Z,2090.00
2023-08-01T07:24:00.381Z,2083.00
2023-08-01T07:25:00.369Z,2090.00
2023-08-01T07:26:00.383Z,2078.00
2023-08-01T07:27:00.367Z,2073.00
2023-08-01T07:28:00.370Z,2084.00
2023-08-01T07:29:00.349Z,2066.00
2023-08-01T07:30:00.354Z,2062.00
2023-08-01T07:31:00.337Z,2070.00
2023-08-01T07:32:00.498Z,2056.00
2023-08-01T07:33:00.388Z,2063.00
2023-08-01T07:34:00.364Z,2063.00
2023-08-01T07:35:00.422Z,2062.00
2023-08-01T07:36:00.348Z,2056.00
2023-08-01T07:37:00.428Z,2051.00
2023-08-01T07:38:00.367Z,2065.00
2023-08-01T07:39:00.371Z,2062.00
2023-08-01T07:40:00.409Z,2068.00
2023-08-01T07:41:00.369Z,2068.00
2023-08-01T07:42:00.368Z,2061.00
2023-08-01T07:43:00.394Z,2056.00
2023-08-01T07:44:00.375Z,2067.00
2023-08-01T07:45:00.363Z,2067.00
2023-08-01T07:46:00.477Z,2070.00
2023-08-01T07:47:00.391Z,2066.00
2023-08-01T07:48:00.421Z,2070.00
2023-08-01T07:49:00.372Z,2069.00
2023-08-01T07:50:00.415Z,2072.00
2023-08-01T07:51:00.421Z,2077.00
2023-08-01T07:52:00.419Z,2062.00
2023-08-01T07:53:00.448Z,2068.00
2023-08-01T07:54:00.469Z,2069.00
2023-08-01T07:55:00.553Z,2049.00
2023-08-01T07:56:00.569Z,2060.00
2023-08-01T07:57:00.567Z,2051.00
2023-08-01T07:58:00.614Z,2048.00
2023-08-01T07:59:00.608Z,2037.00
2023-08-01T08:00:00.687Z,2023.00
2023-08-01T08:01:00.742Z,2028.00
2023-08-01T08:02:00.754Z,2027.00
2023-08-01T08:03:00.878Z,2017.00
2023-08-01T08:04:03.433Z,1998.00
2023-08-01T08:05:00.829Z,2007.00
2023-08-01T08:06:00.855Z,1988.00
2023-08-01T08:07:00.833Z,1976.00
2023-08-01T08:08:00.836Z,1968.00
2023-08-01T08:09:00.815Z,1956.00
2023-08-01T08:10:00.817Z,1948.00
2023-08-01T08:11:00.827Z,1937.00
2023-08-01T08:12:00.796Z,1921.00
2023-08-01T08:13:00.778Z,1928.00
2023-08-01T08:14:00.788Z,1915.00
2023-08-01T08:15:00.794Z,1879.00
2023-08-01T08:16:00.916Z,1879.00
2023-08-01T08:17:00.798Z,1856.00
2023-08-01T08:18:00.780Z,1842.00
2023-08-01T08:19:00.768Z,1835.00
2023-08-01T08:20:00.747Z,1831.00
2023-08-01T08:21:00.736Z,1847.00
2023-08-01T08:22:00.760Z,1831.00
2023-08-01T08:23:00.715Z,1829.00
2023-08-01T08:24:00.740Z,1842.00
2023-08-01T08:25:00.720Z,1826.00
2023-08-01T08:26:00.709Z,1846.00
2023-08-01T08:27:00.707Z,1838.00
2023-08-01T08:28:00.702Z,1833.00
2023-08-01T08:29:00.785Z,1842.00
2023-08-01T08:30:00.667Z,1848.00
2023-08-01T08:31:00.708Z,1843.00
2023-08-01T08:32:00.681Z,1837.00
2023-08-01T08:33:00.693Z,1838.00
2023-08-01T08:34:00.670Z,1840.00
2023-08-01T08:35:00.692Z,1851.00
2023-08-01T08:36:00.649Z,1843.00
2023-08-01T08:37:00.623Z,1852.00
2023-08-01T08:38:00.629Z,1847.00
2023-08-01T08:39:00.611Z,1849.00
2023-08-01T08:40:00.619Z,1849.00
2023-08-01T08:41:00.617Z,1851.00
2023-08-01T08:42:00.596Z,1830.00
2023-08-01T08:43:00.574Z,1840.00
2023-08-01T08:44:00.615Z,1833.00
2023-08-01T08:45:00.574Z,1835.00
2023-08-01T08:46:00.563Z,1833.00
2023-08-01T08:47:00.617Z,1837.00
2023-08-01T08:48:00.592Z,1821.00
2023-08-01T08:49:00.612Z,1826.00
2023-08-01T08:50:00.687Z,1828.00
2023-08-01T08:51:00.742Z,1844.00
2023-08-01T08:52:00.790Z,1830.00
2023-08-01T08:53:00.827Z,1836.00
2023-08-01T08:54:02.813Z,1825.00
2023-08-01T08:55:00.921Z,1835.00
2023-08-01T08:56:00.965Z,1832.00
2023-08-01T08:57:01.035Z,1839.00
2023-08-01T08:58:01.080Z,1849.00
2023-08-01T08:59:01.149Z,1830.00
2023-08-01T09:00:01.206Z,1826.00
2023-08-01T09:01:01.272Z,1840.00
2023-08-01T09:02:01.298Z,1819.00
2023-08-01T09:03:01.404Z,1828.00
2023-08-01T09:04:01.489Z,1821.00
2023-08-01T09:05:01.489Z,1802.00
2023-08-01T09:06:01.577Z,1811.00
2023-08-01T09:07:01.616Z,1794.00
2023-08-01T09:08:01.685Z,1796.00
2023-08-01T09:09:01.733Z,1795.00
2023-08-01T09:10:01.846Z,1798.00
2023-08-01T09:11:01.840Z,1787.00
2023-08-01T09:12:01.915Z,1772.00
2023-08-01T09:13:01.952Z,1775.00
2023-08-01T09:14:02.016Z,1786.00
2023-08-01T09:15:02.076Z,1774.00
2023-08-01T09:16:02.144Z,1771.00
2023-08-01T09:17:02.271Z,1770.00
2023-08-01T09:18:02.277Z,1772.00
2023-08-01T09:19:02.289Z,1771.00
2023-08-01T09:20:02.396Z,1768.00
2023-08-01T09:21:02.411Z,1769.00
2023-08-01T09:22:02.457Z,1767.00
2023-08-01T09:23:02.552Z,1757.00
2023-08-01T09:24:02.574Z,1761.00
2023-08-01T09:25:02.640Z,1762.00
2023-08-01T09:26:02.660Z,1742.00
2023-08-01T09:27:02.700Z,1744.00
2023-08-01T09:28:02.833Z,1721.00
2023-08-01T09:29:02.816Z,1728.00
2023-08-01T09:30:02.906Z,1738.00
2023-08-01T09:31:02.991Z,1719.00
2023-08-01T09:32:02.964Z,1713.00
2023-08-01T09:33:03.045Z,1713.00
2023-08-01T09:34:03.119Z,1710.00
2023-08-01T09:35:03.100Z,1713.00
2023-08-01T09:36:03.163Z,1704.00
2023-08-01T09:37:03.214Z,1698.00
2023-08-01T09:38:03.339Z,1692.00
2023-08-01T09:39:03.315Z,1688.00
2023-08-01T09:40:03.392Z,1682.00
2023-08-01T09:41:03.408Z,1681.00
2023-08-01T09:42:03.496Z,1665.00
2023-08-01T09:43:03.528Z,1653.00
2023-08-01T09:44:03.586Z,1653.00
2023-08-01T09:45:03.616Z,1654.00
2023-08-01T09:46:03.700Z,1645.00
2023-08-01T09:47:03.717Z,1656.00
2023-08-01T09:48:03.879Z,1658.00
2023-08-01T09:49:03.840Z,1666.00
2023-08-01T09:50:03.888Z,1656.00
2023-08-01T09:51:03.952Z,1666.00
2023-08-01T09:52:04.009Z,1682.00
2023-08-01T09:53:04.075Z,1687.00
2023-08-01T09:54:04.131Z,1683.00
2023-08-01T09:55:04.186Z,1682.00
2023-08-01T09:56:04.271Z,1679.00
2023-08-01T09:57:04.266Z,1667.00
2023-08-01T09:58:04.409Z,1661.00
2023-08-01T09:59:04.380Z,1658.00
2023-08-01T10:00:04.418Z,1651.00
2023-08-01T10:01:04.467Z,1652.00
2023-08-01T10:02:04.550Z,1634.00
2023-08-01T10:03:04.613Z,1640.00
2023-08-01T10:04:04.675Z,1636.00
2023-08-01T10:05:04.670Z,1633.00
2023-08-01T10:06:04.715Z,1613.00
2023-08-01T10:07:04.751Z,1617.00
2023-08-01T10:08:04.805Z,1607.00
2023-08-01T10:09:04.928Z,1610.00
2023-08-01T10:10:04.885Z,1606.00
2023-08-01T10:11:05.559Z,1615.00
2023-08-01T10:12:05.004Z,1614.00
2023-08-01T10:13:05.059Z,1609.00
2023-08-01T10:14:05.091Z,1596.00
2023-08-01T10:15:05.174Z,1589.00
2023-08-01T10:16:05.220Z,1592.00
2023-08-01T10:17:05.252Z,1589.00
2023-08-01T10:18:05.349Z,1578.00
2023-08-01T10:19:05.339Z,1570.00
2023-08-01T10:20:05.404Z,1575.00
2023-08-01T10:21:05.480Z,1564.00
2023-08-01T10:22:05.522Z,1554.00
2023-08-01T10:23:05.570Z,1534.00
2023-08-01T10:24:05.619Z,1533.00
2023-08-01T10:25:05.711Z,1515.00
2023-08-01T10:26:05.761Z,1500.00
2023-08-01T10:27:05.793Z,1487.00
2023-08-01T10:28:05.925Z,1477.00
2023-08-01T10:29:05.923Z,1476.00
2023-08-01T10:30:06.090Z,1478.00
2023-08-01T10:31:06.029Z,1475.00
2023-08-01T10:32:06.144Z,1472.00
2023-08-01T10:33:06.213Z,1486.00
2023-08-01T10:34:06.186Z,1475.00
2023-08-01T10:35:06.248Z,1464.00
2023-08-01T10:36:06.327Z,1472.00
2023-08-01T10:37:06.356Z,1446.00
2023-08-01T10:38:06.421Z,1434.00
2023-08-01T10:39:06.493Z,1426.00
2023-08-01T10:40:06.531Z,1414.00
2023-08-01T10:41:06.602Z,1402.00
2023-08-01T10:42:06.816Z,1386.00
2023-08-01T10:43:06.706Z,1363.00
2023-08-01T10:44:06.757Z,1349.00
2023-08-01T10:45:06.841Z,1331.00
2023-08-01T10:46:07.028Z,1320.00
2023-08-01T10:47:06.993Z,1300.00
2023-08-01T10:48:07.031Z,1284.00
2023-08-01T10:49:07.056Z,1276.00
2023-08-01T10:50:07.102Z,1282.00
2023-08-01T10:51:07.161Z,1252.00
2023-08-01T10:52:07.239Z,1236.00
2023-08-01T10:53:07.271Z,1233.00
2023-08-01T10:54:07.335Z,1212.00
2023-08-01T10:55:07.407Z,1201.00
2023-08-01T10:56:07.443Z,1198.00
2023-08-01T10:57:07.494Z,1189.00
2023-08-01T10:58:07.557Z,1179.00
2023-08-01T10:59:07.575Z,1183.00
2023-08-01T11:00:07.627Z,1177.00
2023-08-01T11:01:07.703Z,1165.00
2023-08-01T11:02:07.718Z,1177.00
2023-08-01T11:03:07.951Z,1174.00
2023-08-01T11:04:07.805Z,1176.00
2023-08-01T11:05:07.848Z,1179.00
2023-08-01T11:06:07.927Z,1171.00
2023-08-01T11:07:07.947Z,1175.00
2023-08-01T11:08:08.026Z,1190.00
2023-08-01T11:09:08.046Z,1182.00
2023-08-01T11:10:08.126Z,1187.00
2023-08-01T11:11:08.141Z,1184.00
2023-08-01T11:12:08.208Z,1184.00
2023-08-01T11:13:08.244Z,1201.00
2023-08-01T11:14:08.297Z,1190.00
2023-08-01T11:15:08.305Z,1199.00
2023-08-01T11:16:08.468Z,1194.00
2023-08-01T11:17:08.410Z,1212.00
2023-08-01T11:18:08.463Z,1207.00
2023-08-01T11:19:08.465Z,1213.00
2023-08-01T11:20:08.567Z,1213.00
2023-08-01T11:21:08.580Z,1210.00
2023-08-01T11:22:08.590Z,1209.00
2023-08-01T11:23:08.670Z,1196.00
2023-08-01T11:24:08.685Z,1231.00
2023-08-01T11:25:08.731Z,1220.00
2023-08-01T11:26:08.774Z,1227.00
2023-08-01T11:27:08.810Z,1220.00
2023-08-01T11:28:09.009Z,1219.00
2023-08-01T11:29:08.893Z,1225.00
2023-08-01T11:30:09.057Z,1222.00
2023-08-01T11:31:09.048Z,1214.00
2023-08-01T11:32:09.016Z,1196.00
2023-08-01T11:33:09.060Z,1192.00
2023-08-01T11:34:09.108Z,1199.00
2023-08-01T11:35:09.119Z,1191.00
2023-08-01T11:36:09.179Z,1212.00
2023-08-01T11:37:09.187Z,1217.00
2023-08-01T11:38:09.199Z,1218.00
2023-08-01T11:39:09.229Z,1217.00
2023-08-01T11:40:09.231Z,1224.00
2023-08-01T11:41:09.264Z,1237.00
2023-08-01T11:42:09.286Z,1235.00
2023-08-01T11:43:09.311Z,1247.00
2023-08-01T11:44:09.313Z,1261.00
2023-08-01T11:45:09.346Z,1264.00
2023-08-01T11:46:09.396Z,1248.00
2023-08-01T11:47:09.358Z,1249.00
2023-08-01T11:48:09.391Z,1259.00
2023-08-01T11:49:09.418Z,1260.00
2023-08-01T11:50:09.410Z,1234.00
2023-08-01T11:51:09.456Z,1224.00
2023-08-01T11:52:09.462Z,1234.00
2023-08-01T11:53:09.455Z,1204.00
2023-08-01T11:54:09.479Z,1227.00
2023-08-01T11:55:09.497Z,1269.00
2023-08-01T11:56:09.516Z,1273.00
2023-08-01T11:57:10.586Z,1259.00
2023-08-01T11:58:09.578Z,1247.00
2023-08-01T11:59:09.595Z,1264.00
2023-08-01T12:00:09.637Z,1235.00
2023-08-01T12:01:09.699Z,1158.00
2023-08-01T12:02:09.709Z,1158.00
2023-08-01T12:03:09.782Z,1151.00
2023-08-01T12:04:09.859Z,1121.00
2023-08-01T12:05:09.854Z,1088.00
2023-08-01T12:06:09.831Z,1094.00
2023-08-01T12:07:09.898Z,1080.00